createdAt,value
2023-05-09T00:00:18.031Z,13.81
2023-05-09T00:02:47.952Z,13.82
2023-05-09T00:05:15.961Z,13.81
2023-05-09T00:07:43.950Z,13.76
2023-05-09T00:10:11.955Z,13.83
2023-05-09T00:12:39.781Z,13.82
2023-05-09T00:15:09.312Z,13.76
2023-05-09T00:17:38.493Z,13.65
2023-05-09T00:20:12.419Z,13.72
2023-05-09T00:22:41.137Z,13.66
2023-05-09T00:25:10.474Z,13.66
2023-05-09T00:27:38.491Z,13.65
2023-05-09T00:30:07.332Z,13.65
2023-05-09T00:32:35.734Z,13.60
2023-05-09T00:35:03.697Z,13.72
2023-05-09T00:37:32.847Z,13.73
2023-05-09T00:40:00.610Z,13.71
2023-05-09T00:42:28.420Z,13.86
2023-05-09T00:44:56.169Z,13.93
2023-05-09T00:47:24.885Z,13.92
2023-05-09T00:49:52.710Z,13.97
2023-05-09T00:52:23.415Z,13.93
2023-05-09T00:54:53.218Z,13.89
2023-05-09T00:57:21.023Z,13.92
2023-05-09T00:59:48.847Z,13.98
2023-05-09T01:02:18.263Z,14.05
2023-05-09T01:04:46.968Z,14.14
2023-05-09T01:07:20.465Z,14.12
2023-05-09T01:09:56.102Z,14.06
2023-05-09T01:12:31.362Z,14.01
2023-05-09T01:15:04.905Z,13.99
2023-05-09T01:17:40.003Z,13.98
2023-05-09T01:20:15.720Z,13.91
2023-05-09T01:22:48.320Z,13.96
2023-05-09T01:25:39.068Z,13.99
2023-05-09T01:28:15.327Z,13.93
2023-05-09T01:30:48.014Z,13.81
2023-05-09T01:33:20.381Z,13.91
2023-05-09T01:35:52.565Z,13.83
2023-05-09T01:38:24.901Z,13.74
2023-05-09T01:40:55.179Z,13.25
2023-05-09T01:43:26.701Z,13.55
2023-05-09T01:45:57.103Z,13.52
2023-05-09T01:48:27.102Z,13.41
2023-05-09T01:50:55.828Z,13.29
2023-05-09T01:53:25.767Z,13.31
2023-05-09T01:55:53.946Z,13.18
2023-05-09T01:58:23.156Z,13.18
2023-05-09T02:00:52.150Z,13.20
2023-05-09T02:03:22.357Z,13.02
2023-05-09T02:05:51.592Z,13.17
2023-05-09T02:08:21.752Z,13.07
2023-05-09T02:10:50.159Z,12.85
2023-05-09T02:13:18.331Z,12.85
2023-05-09T02:15:46.535Z,12.73
2023-05-09T02:18:14.313Z,12.73
2023-05-09T02:20:43.520Z,12.65
2023-05-09T02:23:11.524Z,12.83
2023-05-09T02:25:40.687Z,12.74
2023-05-09T02:28:10.036Z,12.65
2023-05-09T02:30:42.309Z,12.74
2023-05-09T02:33:12.713Z,12.81
2023-05-09T02:35:43.099Z,12.82
2023-05-09T02:38:13.141Z,12.89
2023-05-09T02:40:43.412Z,13.06
2023-05-09T02:43:11.501Z,13.14
2023-05-09T02:45:39.356Z,13.04
2023-05-09T02:48:08.990Z,13.06
2023-05-09T02:50:38.246Z,13.03
2023-05-09T02:53:06.277Z,13.02
2023-05-09T02:55:38.414Z,13.16
2023-05-09T02:58:13.290Z,13.21
2023-05-09T03:00:42.323Z,13.06
2023-05-09T03:03:10.167Z,13.08
2023-05-09T03:05:38.200Z,13.09
2023-05-09T03:08:06.536Z,13.00
2023-05-09T03:10:35.655Z,13.09
2023-05-09T03:13:03.514Z,12.99
2023-05-09T03:15:31.359Z,12.94
2023-05-09T03:17:59.069Z,13.00
2023-05-09T03:20:27.788Z,12.96
2023-05-09T03:22:55.638Z,12.92
2023-05-09T03:25:26.179Z,12.99
2023-05-09T03:27:55.344Z,13.07
2023-05-09T03:30:23.059Z,13.03
2023-05-09T03:32:50.873Z,13.02
2023-05-09T03:35:18.751Z,13.05
2023-05-09T03:37:46.461Z,13.15
2023-05-09T03:40:14.400Z,13.28
2023-05-09T03:42:42.130Z,13.34
2023-05-09T03:45:12.592Z,13.48
2023-05-09T03:47:40.573Z,13.40
2023-05-09T03:50:09.592Z,13.34
2023-05-09T03:52:37.519Z,13.36
2023-05-09T03:55:05.982Z,13.27
2023-05-09T03:57:35.599Z,13.32
2023-05-09T04:00:04.880Z,13.33
2023-05-09T04:02:34.443Z,13.41
2023-05-09T04:05:04.406Z,13.34
2023-05-09T04:07:32.751Z,13.23
2023-05-09T04:10:01.145Z,13.37
2023-05-09T04:12:28.874Z,13.46
2023-05-09T04:14:56.652Z,13.51
2023-05-09T04:17:24.812Z,13.60
2023-05-09T04:19:54.121Z,13.58
2023-05-09T04:22:22.173Z,13.61
2023-05-09T04:24:50.143Z,13.68
2023-05-09T04:27:17.862Z,13.70
2023-05-09T04:29:45.647Z,13.78
2023-05-09T04:32:14.642Z,13.71
2023-05-09T04:34:42.493Z,13.68
2023-05-09T04:37:11.896Z,13.84
2023-05-09T04:39:39.715Z,13.87
2023-05-09T04:42:07.577Z,13.90
2023-05-09T04:44:35.853Z,13.92
2023-05-09T04:47:03.644Z,14.01
2023-05-09T04:49:31.353Z,14.14
2023-05-09T04:51:59.309Z,14.22
2023-05-09T04:54:28.440Z,14.37
2023-05-09T04:57:03.154Z,14.32
2023-05-09T04:59:34.570Z,14.36
2023-05-09T05:02:02.293Z,14.44
2023-05-09T05:04:30.155Z,14.37
2023-05-09T05:06:57.930Z,14.46
2023-05-09T05:09:25.991Z,14.28
2023-05-09T05:12:01.772Z,14.38
2023-05-09T05:14:31.116Z,14.42
2023-05-09T05:16:58.808Z,14.45
2023-05-09T05:19:26.608Z,14.49
2023-05-09T05:21:57.423Z,14.50
2023-05-09T05:24:25.251Z,14.30
2023-05-09T05:26:52.970Z,14.35
2023-05-09T05:29:22.345Z,14.48
2023-05-09T05:31:50.101Z,14.73
2023-05-09T05:34:18.288Z,14.70
2023-05-09T05:36:46.514Z,14.75
2023-05-09T05:39:14.234Z,14.67
2023-05-09T05:41:42.001Z,14.63
2023-05-09T05:44:09.699Z,14.63
2023-05-09T05:46:38.778Z,14.70
2023-05-09T05:49:06.522Z,14.76
2023-05-09T05:51:34.484Z,15.06
2023-05-09T05:54:02.357Z,15.03
2023-05-09T05:56:30.092Z,14.92
2023-05-09T05:58:57.815Z,14.91
2023-05-09T06:01:25.706Z,14.94
2023-05-09T06:03:56.130Z,14.89
2023-05-09T06:06:24.429Z,14.97
2023-05-09T06:08:52.105Z,15.06
2023-05-09T06:11:21.194Z,15.14
2023-05-09T06:13:48.928Z,15.15
2023-05-09T06:16:19.841Z,14.91
2023-05-09T06:18:48.313Z,15.20
2023-05-09T06:21:17.444Z,15.37
2023-05-09T06:24:01.289Z,15.33
2023-05-09T06:26:30.066Z,15.54
2023-05-09T06:28:57.943Z,15.65
2023-05-09T06:31:26.205Z,15.70
2023-05-09T06:33:54.004Z,15.71
2023-05-09T06:36:23.212Z,15.65
2023-05-09T06:38:50.973Z,15.95
2023-05-09T06:41:18.708Z,16.11
2023-05-09T06:43:46.654Z,16.18
2023-05-09T06:46:14.492Z,16.31
2023-05-09T06:48:42.413Z,16.47
2023-05-09T06:51:11.456Z,16.51
2023-05-09T06:53:40.821Z,16.65
2023-05-09T06:56:08.778Z,16.69
2023-05-09T06:58:36.547Z,16.66
2023-05-09T07:01:06.452Z,16.83
2023-05-09T07:03:34.313Z,16.93
2023-05-09T07:06:02.075Z,16.63
2023-05-09T07:08:29.845Z,16.51
2023-05-09T07:10:59.232Z,16.39
2023-05-09T07:13:27.022Z,16.09
2023-05-09T07:15:54.791Z,16.55
2023-05-09T07:18:22.695Z,16.93
2023-05-09T07:20:51.018Z,16.97
2023-05-09T07:23:18.716Z,17.47
2023-05-09T07:25:46.640Z,17.34
2023-05-09T07:28:15.787Z,17.31
2023-05-09T07:30:43.760Z,17.53
2023-05-09T07:33:11.703Z,18.20
2023-05-09T07:35:39.576Z,18.06
2023-05-09T07:38:07.666Z,18.38
2023-05-09T07:40:36.564Z,18.90
2023-05-09T07:43:04.298Z,19.50
2023-05-09T07:45:33.632Z,18.97
2023-05-09T07:48:01.576Z,19.74
2023-05-09T07:50:29.357Z,20.59
2023-05-09T07:52:57.076Z,19.61
2023-05-09T07:55:24.870Z,20.61
2023-05-09T07:57:52.663Z,19.60
2023-05-09T08:00:23.493Z,19.51
2023-05-09T08:02:53.426Z,20.61
2023-05-09T08:05:21.294Z,20.86
2023-05-09T08:07:49.102Z,20.80
2023-05-09T08:10:17.241Z,21.00
2023-05-09T08:12:45.025Z,22.20
2023-05-09T08:15:13.389Z,22.87
2023-05-09T08:17:41.337Z,22.66
2023-05-09T08:20:13.400Z,23.78
2023-05-09T08:22:41.694Z,24.00
2023-05-09T08:25:10.153Z,25.71
2023-05-09T08:27:37.919Z,24.89
2023-05-09T08:30:07.026Z,23.79
2023-05-09T08:32:34.915Z,23.84
2023-05-09T08:35:02.783Z,23.16
2023-05-09T08:37:31.922Z,24.34
2023-05-09T08:39:59.829Z,24.34
2023-05-09T08:42:29.081Z,22.97
2023-05-09T08:44:57.165Z,22.95
2023-05-09T08:47:26.032Z,21.93
2023-05-09T08:49:54.259Z,22.83
2023-05-09T08:52:22.683Z,23.72
2023-05-09T08:54:53.358Z,22.86
2023-05-09T08:57:21.344Z,22.65
2023-05-09T08:59:50.762Z,21.27
2023-05-09T09:02:19.140Z,20.97
2023-05-09T09:04:47.152Z,20.46
2023-05-09T09:07:18.719Z,20.59
2023-05-09T09:09:48.172Z,20.36
2023-05-09T09:12:18.707Z,20.19
2023-05-09T09:14:50.494Z,21.97
2023-05-09T09:17:21.475Z,22.14
2023-05-09T09:19:51.307Z,23.05
2023-05-09T09:22:20.830Z,23.85
2023-05-09T09:24:48.920Z,22.94
2023-05-09T09:27:18.837Z,22.25
2023-05-09T09:29:46.661Z,22.00
2023-05-09T09:32:14.589Z,23.00
2023-05-09T09:34:42.451Z,22.34
2023-05-09T09:37:10.207Z,23.52
2023-05-09T09:39:38.140Z,24.59
2023-05-09T09:42:13.107Z,23.26
2023-05-09T09:44:42.220Z,22.54
2023-05-09T09:47:11.510Z,22.48
2023-05-09T09:49:46.265Z,24.01
2023-05-09T09:52:25.129Z,24.64
2023-05-09T09:54:56.104Z,24.58
2023-05-09T09:57:35.968Z,26.24
2023-05-09T10:00:06.360Z,25.35
2023-05-09T10:02:34.210Z,28.21
2023-05-09T10:05:08.507Z,26.32
2023-05-09T10:07:39.154Z,27.38
2023-05-09T10:10:07.936Z,27.68
2023-05-09T10:12:41.760Z,26.09
2023-05-09T10:15:13.414Z,26.34
2023-05-09T10:17:41.714Z,26.73
2023-05-09T10:20:10.864Z,27.41
2023-05-09T10:22:42.137Z,26.85
2023-05-09T10:25:16.110Z,25.85
2023-05-09T10:27:48.054Z,25.42
2023-05-09T10:30:19.998Z,26.30
2023-05-09T10:32:53.082Z,26.81
2023-05-09T10:35:25.701Z,25.22
2023-05-09T10:37:56.915Z,23.77
2023-05-09T10:40:25.235Z,22.74
2023-05-09T10:42:52.993Z,23.30
2023-05-09T10:45:23.166Z,23.90
2023-05-09T10:47:53.019Z,23.27
2023-05-09T10:50:22.527Z,22.75
2023-05-09T10:53:14.244Z,23.25
2023-05-09T10:55:50.841Z,23.96
2023-05-09T10:58:23.798Z,25.12
2023-05-09T11:00:55.353Z,25.61
2023-05-09T11:03:25.975Z,26.02
2023-05-09T11:05:55.494Z,25.08
2023-05-09T11:08:26.697Z,24.65
2023-05-09T11:10:55.616Z,23.93
2023-05-09T11:13:25.297Z,23.34
2023-05-09T11:16:22.000Z,24.15
2023-05-09T11:18:55.965Z,24.54
2023-05-09T11:21:23.803Z,23.54
2023-05-09T11:23:55.356Z,24.31
2023-05-09T11:26:23.562Z,24.46
2023-05-09T11:28:54.976Z,23.38
2023-05-09T11:31:24.129Z,23.93
2023-05-09T11:33:58.331Z,23.84
2023-05-09T11:36:32.007Z,25.33
2023-05-09T11:39:07.727Z,25.26
2023-05-09T11:41:41.235Z,25.74
2023-05-09T11:44:16.874Z,26.20
2023-05-09T11:46:46.341Z,25.55
2023-05-09T11:49:14.325Z,24.43
2023-05-09T11:51:42.699Z,23.80
2023-05-09T11:54:14.871Z,24.46
2023-05-09T11:56:43.093Z,24.85
2023-05-09T11:59:13.239Z,24.68
2023-05-09T12:01:43.644Z,24.11
2023-05-09T12:04:13.002Z,23.85
2023-05-09T12:06:48.656Z,23.96
2023-05-09T12:09:16.575Z,24.26
2023-05-09T12:11:50.098Z,24.78
2023-05-09T12:14:28.106Z,24.26
2023-05-09T12:16:55.976Z,24.10
2023-05-09T12:19:26.182Z,23.97
2023-05-09T12:21:58.058Z,23.85
2023-05-09T12:24:26.724Z,24.07
2023-05-09T12:26:54.776Z,22.85
2023-05-09T12:29:23.714Z,23.44
2023-05-09T12:31:53.229Z,23.84
2023-05-09T12:34:21.489Z,23.54
2023-05-09T12:36:51.766Z,23.89
2023-05-09T12:39:21.945Z,23.50
2023-05-09T12:42:01.059Z,23.39
2023-05-09T12:44:30.126Z,23.42
2023-05-09T12:46:59.788Z,23.33
2023-05-09T12:49:28.301Z,23.26
2023-05-09T12:52:04.408Z,23.62
2023-05-09T12:54:32.850Z,23.92
2023-05-09T12:57:01.186Z,23.68
2023-05-09T12:59:31.346Z,23.80
2023-05-09T13:02:01.955Z,23.73
2023-05-09T13:04:30.108Z,24.32
2023-05-09T13:07:00.070Z,24.14
2023-05-09T13:09:28.469Z,24.86
2023-05-09T13:11:56.480Z,25.52
2023-05-09T13:14:24.663Z,25.54
2023-05-09T13:16:52.628Z,25.16
2023-05-09T13:19:22.753Z,25.57
2023-05-09T13:21:50.581Z,25.83
2023-05-09T13:24:19.684Z,26.58
2023-05-09T13:26:47.603Z,26.44
2023-05-09T13:29:15.567Z,26.25
2023-05-09T13:31:43.349Z,26.01
2023-05-09T13:34:11.100Z,24.71
2023-05-09T13:36:38.964Z,25.56
2023-05-09T13:39:06.832Z,26.01
2023-05-09T13:41:37.546Z,25.65
2023-05-09T13:44:06.228Z,24.62
2023-05-09T13:46:35.229Z,24.23
2023-05-09T13:49:03.141Z,24.29
2023-05-09T13:51:30.959Z,24.02
2023-05-09T13:53:58.738Z,23.50
2023-05-09T13:56:26.612Z,22.93
2023-05-09T13:58:55.720Z,23.09
2023-05-09T14:01:23.718Z,22.73
2023-05-09T14:03:52.794Z,23.08
2023-05-09T14:06:20.748Z,23.39
2023-05-09T14:08:48.602Z,22.93
2023-05-09T14:11:16.461Z,22.56
2023-05-09T14:13:44.312Z,22.41
2023-05-09T14:16:13.753Z,22.67
2023-05-09T14:18:41.669Z,22.51
2023-05-09T14:21:09.473Z,22.74
2023-05-09T14:23:37.202Z,22.49
2023-05-09T14:26:05.065Z,22.51
2023-05-09T14:28:32.878Z,22.17
2023-05-09T14:31:00.760Z,21.95
2023-05-09T14:33:29.950Z,21.76
2023-05-09T14:35:57.702Z,21.67
2023-05-09T14:38:25.467Z,21.30
2023-05-09T14:40:53.156Z,21.26
2023-05-09T14:43:22.226Z,21.21
2023-05-09T14:45:49.989Z,21.04
2023-05-09T14:48:17.810Z,21.02
2023-05-09T14:50:46.972Z,20.97
2023-05-09T14:53:15.043Z,20.74
2023-05-09T14:55:43.387Z,20.82
2023-05-09T14:58:13.715Z,20.55
2023-05-09T15:00:41.950Z,20.36
2023-05-09T15:03:10.233Z,20.20
2023-05-09T15:05:38.247Z,20.27
2023-05-09T15:08:08.012Z,20.33
2023-05-09T15:10:35.966Z,19.78
2023-05-09T15:13:05.807Z,18.84
2023-05-09T15:15:33.815Z,18.88
2023-05-09T15:18:02.591Z,18.78
2023-05-09T15:20:30.435Z,18.35
2023-05-09T15:22:58.295Z,18.13
2023-05-09T15:25:27.651Z,17.61
2023-05-09T15:27:55.457Z,17.70
2023-05-09T15:30:23.369Z,17.36
2023-05-09T15:32:51.184Z,17.08
2023-05-09T15:35:19.542Z,16.82
2023-05-09T15:37:47.509Z,16.88
2023-05-09T15:40:15.878Z,16.63
2023-05-09T15:42:48.305Z,16.58
2023-05-09T15:45:16.804Z,16.75
2023-05-09T15:47:44.530Z,16.77
2023-05-09T15:50:13.266Z,16.61
2023-05-09T15:52:41.136Z,16.35
2023-05-09T15:55:10.746Z,16.45
2023-05-09T15:57:38.621Z,16.57
2023-05-09T16:00:10.046Z,16.62
2023-05-09T16:02:37.875Z,16.59
2023-05-09T16:05:06.149Z,16.55
2023-05-09T16:07:35.761Z,16.50
2023-05-09T16:10:03.924Z,16.25
2023-05-09T16:12:32.837Z,16.32
2023-05-09T16:15:03.430Z,16.13
2023-05-09T16:17:33.385Z,16.28
2023-05-09T16:20:01.994Z,16.28
2023-05-09T16:22:29.906Z,15.91
2023-05-09T16:24:57.715Z,15.93
2023-05-09T16:27:25.506Z,15.88
2023-05-09T16:29:53.310Z,15.67
2023-05-09T16:32:21.165Z,15.63
2023-05-09T16:34:50.754Z,15.57
2023-05-09T16:37:19.258Z,15.37
2023-05-09T16:39:47.108Z,15.49
2023-05-09T16:42:14.900Z,15.40
2023-05-09T16:44:42.706Z,15.23
2023-05-09T16:47:10.502Z,15.25
2023-05-09T16:49:38.745Z,14.99
2023-05-09T16:52:07.855Z,14.87
2023-05-09T16:54:36.085Z,15.10
2023-05-09T16:57:03.784Z,14.76
2023-05-09T16:59:32.791Z,14.73
2023-05-09T17:02:00.586Z,14.86
2023-05-09T17:04:29.324Z,15.00
2023-05-09T17:06:57.139Z,14.94
2023-05-09T17:09:26.593Z,14.92
2023-05-09T17:11:54.343Z,15.01
2023-05-09T17:14:22.321Z,14.99
2023-05-09T17:16:50.148Z,15.07
2023-05-09T17:19:19.046Z,14.98
2023-05-09T17:21:46.854Z,14.90
2023-05-09T17:24:14.683Z,14.93
2023-05-09T17:26:43.866Z,14.73
2023-05-09T17:29:11.652Z,14.89
2023-05-09T17:31:39.445Z,14.85
2023-05-09T17:34:07.300Z,15.18
2023-05-09T17:36:35.030Z,15.15
2023-05-09T17:39:02.767Z,14.91
2023-05-09T17:41:30.588Z,14.89
2023-05-09T17:43:59.731Z,14.87
2023-05-09T17:46:27.517Z,14.83
2023-05-09T17:48:55.275Z,15.05
2023-05-09T17:51:25.707Z,15.02
2023-05-09T17:53:53.698Z,14.95
2023-05-09T17:56:22.423Z,14.83
2023-05-09T17:58:52.989Z,14.79
2023-05-09T18:01:22.506Z,14.87
2023-05-09T18:03:50.455Z,14.96
2023-05-09T18:06:19.270Z,14.65
2023-05-09T18:08:47.213Z,14.63
2023-05-09T18:11:15.506Z,14.54
2023-05-09T18:13:43.227Z,14.57
2023-05-09T18:16:10.990Z,14.91
2023-05-09T18:18:42.590Z,14.81
2023-05-09T18:21:10.428Z,14.82
2023-05-09T18:23:38.244Z,14.74
2023-05-09T18:26:06.153Z,14.86
2023-05-09T18:28:39.411Z,15.00
2023-05-09T18:31:09.385Z,15.06
2023-05-09T18:33:41.936Z,15.01
2023-05-09T18:36:11.258Z,14.95
2023-05-09T18:38:39.789Z,14.82
2023-05-09T18:41:09.116Z,14.89
2023-05-09T18:43:38.764Z,14.62
2023-05-09T18:46:07.532Z,14.74
2023-05-09T18:48:35.410Z,14.79
2023-05-09T18:51:04.858Z,14.58
2023-05-09T18:53:32.674Z,14.62
2023-05-09T18:56:01.954Z,14.61
2023-05-09T18:58:29.691Z,14.60
2023-05-09T19:00:57.520Z,14.52
2023-05-09T19:03:25.419Z,14.94
2023-05-09T19:05:53.226Z,14.65
2023-05-09T19:08:22.502Z,14.91
2023-05-09T19:10:50.464Z,15.06
2023-05-09T19:13:18.457Z,14.60
2023-05-09T19:15:49.068Z,14.67
2023-05-09T19:18:16.783Z,14.69
2023-05-09T19:20:44.655Z,14.58
2023-05-09T19:23:12.500Z,14.69
2023-05-09T19:25:41.914Z,14.67
2023-05-09T19:28:11.080Z,14.59
2023-05-09T19:30:38.818Z,14.66
2023-05-09T19:33:06.767Z,14.64
2023-05-09T19:35:34.726Z,14.58
2023-05-09T19:38:02.528Z,14.49
2023-05-09T19:40:30.273Z,14.60
2023-05-09T19:42:59.383Z,14.79
2023-05-09T19:45:28.841Z,14.75
2023-05-09T19:47:58.904Z,14.68
2023-05-09T19:50:26.753Z,14.73
2023-05-09T19:52:54.779Z,14.76
2023-05-09T19:55:23.084Z,14.96
2023-05-09T19:57:51.166Z,14.77
2023-05-09T20:00:22.908Z,14.84
2023-05-09T20:02:50.770Z,14.93
2023-05-09T20:05:18.581Z,14.82
2023-05-09T20:07:46.428Z,14.82
2023-05-09T20:10:15.632Z,14.88
2023-05-09T20:12:43.598Z,14.85
2023-05-09T20:15:12.126Z,14.91
2023-05-09T20:17:41.247Z,14.88
2023-05-09T20:20:10.851Z,15.00
2023-05-09T20:22:38.642Z,15.09
2023-05-09T20:25:07.042Z,15.11
2023-05-09T20:27:35.477Z,15.04
2023-05-09T20:30:03.674Z,15.09
2023-05-09T20:32:31.898Z,14.95
2023-05-09T20:35:01.008Z,14.72
2023-05-09T20:37:28.848Z,14.73
2023-05-09T20:39:56.672Z,14.75
2023-05-09T20:42:24.444Z,14.81
2023-05-09T20:44:52.191Z,14.54
2023-05-09T20:47:19.990Z,14.67
2023-05-09T20:49:47.745Z,14.73
2023-05-09T20:52:16.908Z,14.71
2023-05-09T20:54:44.659Z,14.71
2023-05-09T20:57:12.347Z,14.75
2023-05-09T20:59:40.660Z,14.51
2023-05-09T21:02:08.910Z,14.35
2023-05-09T21:04:36.785Z,14.48
2023-05-09T21:07:04.516Z,14.53
2023-05-09T21:09:33.667Z,14.52
2023-05-09T21:12:03.671Z,14.28
2023-05-09T21:14:31.762Z,14.20
2023-05-09T21:16:59.515Z,14.34
2023-05-09T21:19:27.320Z,14.37
2023-05-09T21:21:55.843Z,14.22
2023-05-09T21:24:23.572Z,14.31
2023-05-09T21:26:53.393Z,14.08
2023-05-09T21:29:21.493Z,14.20
2023-05-09T21:31:49.231Z,14.24
2023-05-09T21:34:16.943Z,14.39
2023-05-09T21:36:44.650Z,14.20
2023-05-09T21:39:12.366Z,14.19
2023-05-09T21:41:42.700Z,14.21
2023-05-09T21:44:12.308Z,14.12
2023-05-09T21:46:41.118Z,14.16
2023-05-09T21:49:08.981Z,14.00
2023-05-09T21:51:36.738Z,14.05
2023-05-09T21:54:04.544Z,14.02
2023-05-09T21:56:32.341Z,14.03
2023-05-09T21:59:00.048Z,14.03
2023-05-09T22:01:29.400Z,14.00
2023-05-09T22:03:57.503Z,14.07
2023-05-09T22:06:25.377Z,13.97
2023-05-09T22:08:53.080Z,14.00
2023-05-09T22:11:21.150Z,13.94
2023-05-09T22:13:48.954Z,14.06
2023-05-09T22:16:17.459Z,13.87
2023-05-09T22:18:46.678Z,13.91
2023-05-09T22:21:14.404Z,13.97
2023-05-09T22:23:42.175Z,13.93
2023-05-09T22:26:09.929Z,13.94
2023-05-09T22:28:38.057Z,13.86
2023-05-09T22:31:06.985Z,13.78
2023-05-09T22:33:34.951Z,13.84
2023-05-09T22:36:04.281Z,13.86
2023-05-09T22:38:32.011Z,13.90
2023-05-09T22:40:59.742Z,13.89
2023-05-09T22:43:33.823Z,13.99
2023-05-09T22:46:06.831Z,13.97
2023-05-09T22:48:34.649Z,13.89
2023-05-09T22:51:02.433Z,13.78
2023-05-09T22:53:32.711Z,13.79
2023-05-09T22:56:00.794Z,13.90
2023-05-09T22:58:28.561Z,13.60
2023-05-09T23:00:56.383Z,13.35
2023-05-09T23:03:24.315Z,13.17
2023-05-09T23:05:52.345Z,13.33
2023-05-09T23:08:20.283Z,13.04
2023-05-09T23:10:49.396Z,13.06
2023-05-09T23:13:17.190Z,13.01
2023-05-09T23:15:45.254Z,12.94
2023-05-09T23:18:13.004Z,12.85
2023-05-09T23:20:40.758Z,12.92
2023-05-09T23:23:08.798Z,12.94
2023-05-09T23:25:36.520Z,13.00
2023-05-09T23:28:05.884Z,12.97
2023-05-09T23:30:33.611Z,13.20
2023-05-09T23:33:01.518Z,13.20
2023-05-09T23:35:29.235Z,13.21
2023-05-09T23:37:57.008Z,13.16
2023-05-09T23:40:24.696Z,13.20
2023-05-09T23:42:52.427Z,13.18
2023-05-09T23:45:22.001Z,13.22
2023-05-09T23:47:50.154Z,13.28
2023-05-09T23:50:18.331Z,13.32
2023-05-09T23:52:49.270Z,13.12
2023-05-09T23:55:17.310Z,13.02
2023-05-09T23:57:45.056Z,13.17
